sensor_id;sensor_type;location;lat;lon;timestamp;P1;durP1;ratioP1;P2;durP2;ratioP2
20935;SDS011;10627;54.514;18.532;2022-12-22T00:05:14;10.17;;;6.40;;
20935;SDS011;10627;54.514;18.532;2022-12-22T00:10:33;9.33;;;5.73;;
20935;SDS011;10627;54.514;18.532;2022-12-22T00:15:52;9.70;;;5.47;;
20935;SDS011;10627;54.514;18.532;2022-12-22T00:21:12;9.67;;;6.47;;
20935;SDS011;10627;54.514;18.532;2022-12-22T00:26:32;11.00;;;6.23;;
20935;SDS011;10627;54.514;18.532;2022-12-22T00:31:51;8.60;;;5.43;;
20935;SDS011;10627;54.514;18.532;2022-12-22T00:37:11;11.40;;;6.33;;
20935;SDS011;10627;54.514;18.532;2022-12-22T00:42:30;8.33;;;5.23;;
20935;SDS011;10627;54.514;18.532;2022-12-22T00:47:49;8.77;;;5.27;;
20935;SDS011;10627;54.514;18.532;2022-12-22T00:53:08;7.87;;;5.60;;
20935;SDS011;10627;54.514;18.532;2022-12-22T00:58:27;10.20;;;5.27;;
20935;SDS011;10627;54.514;18.532;2022-12-22T01:03:46;9.03;;;5.60;;
20935;SDS011;10627;54.514;18.532;2022-12-22T01:09:08;10.83;;;6.50;;
20935;SDS011;10627;54.514;18.532;2022-12-22T01:14:27;12.20;;;7.03;;
20935;SDS011;10627;54.514;18.532;2022-12-22T01:19:46;11.70;;;6.60;;
20935;SDS011;10627;54.514;18.532;2022-12-22T01:25:13;11.70;;;6.73;;
20935;SDS011;10627;54.514;18.532;2022-12-22T01:30:32;12.13;;;6.73;;
20935;SDS011;10627;54.514;18.532;2022-12-22T01:35:51;16.80;;;7.47;;
20935;SDS011;10627;54.514;18.532;2022-12-22T01:41:12;15.40;;;7.47;;
20935;SDS011;10627;54.514;18.532;2022-12-22T01:46:35;13.97;;;7.53;;
20935;SDS011;10627;54.514;18.532;2022-12-22T01:51:55;16.23;;;7.93;;
20935;SDS011;10627;54.514;18.532;2022-12-22T01:57:14;14.10;;;6.80;;
20935;SDS011;10627;54.514;18.532;2022-12-22T02:02:33;21.07;;;10.40;;
20935;SDS011;10627;54.514;18.532;2022-12-22T02:13:44;17.37;;;8.90;;
20935;SDS011;10627;54.514;18.532;2022-12-22T02:24:36;18.40;;;9.63;;
20935;SDS011;10627;54.514;18.532;2022-12-22T02:29:57;16.50;;;8.43;;
20935;SDS011;10627;54.514;18.532;2022-12-22T02:35:18;17.17;;;8.10;;
20935;SDS011;10627;54.514;18.532;2022-12-22T02:46:24;17.47;;;9.53;;
20935;SDS011;10627;54.514;18.532;2022-12-22T02:51:48;15.27;;;8.17;;
20935;SDS011;10627;54.514;18.532;2022-12-22T02:57:08;16.77;;;8.43;;
20935;SDS011;10627;54.514;18.532;2022-12-22T03:02:27;14.47;;;8.83;;
20935;SDS011;10627;54.514;18.532;2022-12-22T03:07:46;15.03;;;8.00;;
20935;SDS011;10627;54.514;18.532;2022-12-22T03:13:06;16.43;;;8.60;;
20935;SDS011;10627;54.514;18.532;2022-12-22T03:18:25;15.13;;;8.97;;
20935;SDS011;10627;54.514;18.532;2022-12-22T03:23:44;18.43;;;9.03;;
20935;SDS011;10627;54.514;18.532;2022-12-22T03:29:03;16.50;;;10.00;;
20935;SDS011;10627;54.514;18.532;2022-12-22T03:34:04;15.77;;;9.33;;
20935;SDS011;10627;54.514;18.532;2022-12-22T03:39:04;16.60;;;8.97;;
20935;SDS011;10627;54.514;18.532;2022-12-22T03:44:05;18.73;;;9.33;;
20935;SDS011;10627;54.514;18.532;2022-12-22T03:49:24;20.77;;;9.20;;
20935;SDS011;10627;54.514;18.532;2022-12-22T03:54:25;16.83;;;8.60;;
20935;SDS011;10627;54.514;18.532;2022-12-22T03:59:26;16.30;;;8.50;;
20935;SDS011;10627;54.514;18.532;2022-12-22T04:04:26;15.03;;;8.83;;
20935;SDS011;10627;54.514;18.532;2022-12-22T04:09:27;15.97;;;9.30;;
20935;SDS011;10627;54.514;18.532;2022-12-22T04:14:28;14.57;;;8.63;;
20935;SDS011;10627;54.514;18.532;2022-12-22T04:19:29;19.40;;;9.97;;
20935;SDS011;10627;54.514;18.532;2022-12-22T04:24:29;24.63;;;10.33;;
20935;SDS011;10627;54.514;18.532;2022-12-22T04:29:30;21.57;;;9.80;;
20935;SDS011;10627;54.514;18.532;2022-12-22T04:34:30;18.27;;;10.00;;
20935;SDS011;10627;54.514;18.532;2022-12-22T04:39:31;16.40;;;8.83;;
20935;SDS011;10627;54.514;18.532;2022-12-22T04:44:31;20.50;;;10.13;;
20935;SDS011;10627;54.514;18.532;2022-12-22T04:49:32;26.47;;;11.30;;
20935;SDS011;10627;54.514;18.532;2022-12-22T04:54:32;22.53;;;10.37;;
20935;SDS011;10627;54.514;18.532;2022-12-22T04:59:33;18.70;;;10.83;;
20935;SDS011;10627;54.514;18.532;2022-12-22T05:04:33;25.93;;;10.93;;
20935;SDS011;10627;54.514;18.532;2022-12-22T05:09:34;24.23;;;10.90;;
20935;SDS011;10627;54.514;18.532;2022-12-22T05:14:34;23.40;;;10.30;;
20935;SDS011;10627;54.514;18.532;2022-12-22T05:19:35;18.30;;;9.50;;
20935;SDS011;10627;54.514;18.532;2022-12-22T05:24:35;23.70;;;11.13;;
20935;SDS011;10627;54.514;18.532;2022-12-22T05:29:36;25.00;;;11.53;;
20935;SDS011;10627;54.514;18.532;2022-12-22T05:34:36;20.83;;;11.63;;
20935;SDS011;10627;54.514;18.532;2022-12-22T05:39:37;24.03;;;12.73;;
20935;SDS011;10627;54.514;18.532;2022-12-22T05:44:37;22.93;;;12.60;;
20935;SDS011;10627;54.514;18.532;2022-12-22T05:49:38;21.80;;;10.47;;
20935;SDS011;10627;54.514;18.532;2022-12-22T05:54:38;29.70;;;12.47;;
20935;SDS011;10627;54.514;18.532;2022-12-22T05:59:39;21.70;;;10.90;;
20935;SDS011;10627;54.514;18.532;2022-12-22T06:04:39;26.33;;;12.17;;
20935;SDS011;10627;54.514;18.532;2022-12-22T06:09:40;20.83;;;10.77;;
20935;SDS011;10627;54.514;18.532;2022-12-22T06:14:40;20.87;;;11.13;;
20935;SDS011;10627;54.514;18.532;2022-12-22T06:19:41;20.73;;;11.00;;
20935;SDS011;10627;54.514;18.532;2022-12-22T06:24:41;23.00;;;10.47;;
20935;SDS011;10627;54.514;18.532;2022-12-22T06:29:42;19.43;;;10.13;;
20935;SDS011;10627;54.514;18.532;2022-12-22T06:34:42;20.63;;;10.63;;
20935;SDS011;10627;54.514;18.532;2022-12-22T06:39:43;30.77;;;12.23;;
20935;SDS011;10627;54.514;18.532;2022-12-22T06:44:43;24.60;;;11.63;;
20935;SDS011;10627;54.514;18.532;2022-12-22T06:49:44;23.43;;;12.17;;
20935;SDS011;10627;54.514;18.532;2022-12-22T06:54:44;28.93;;;12.33;;
20935;SDS011;10627;54.514;18.532;2022-12-22T06:59:45;23.50;;;11.70;;
20935;SDS011;10627;54.514;18.532;2022-12-22T07:04:45;24.07;;;11.80;;
20935;SDS011;10627;54.514;18.532;2022-12-22T07:09:46;24.33;;;11.60;;
20935;SDS011;10627;54.514;18.532;2022-12-22T07:14:46;26.67;;;13.23;;
20935;SDS011;10627;54.514;18.532;2022-12-22T07:19:47;21.20;;;12.13;;
20935;SDS011;10627;54.514;18.532;2022-12-22T07:24:47;28.23;;;12.97;;
20935;SDS011;10627;54.514;18.532;2022-12-22T07:29:49;25.87;;;12.67;;
20935;SDS011;10627;54.514;18.532;2022-12-22T07:34:49;32.57;;;13.63;;
20935;SDS011;10627;54.514;18.532;2022-12-22T07:39:50;26.00;;;13.17;;
20935;SDS011;10627;54.514;18.532;2022-12-22T07:44:51;24.33;;;12.10;;
20935;SDS011;10627;54.514;18.532;2022-12-22T07:49:51;27.20;;;12.83;;
20935;SDS011;10627;54.514;18.532;2022-12-22T07:55:10;25.70;;;12.70;;
20935;SDS011;10627;54.514;18.532;2022-12-22T08:00:11;26.60;;;14.07;;
20935;SDS011;10627;54.514;18.532;2022-12-22T08:05:12;24.50;;;12.37;;
20935;SDS011;10627;54.514;18.532;2022-12-22T08:10:13;29.83;;;13.67;;
20935;SDS011;10627;54.514;18.532;2022-12-22T08:15:13;28.20;;;13.33;;
20935;SDS011;10627;54.514;18.532;2022-12-22T08:20:14;30.47;;;15.20;;
20935;SDS011;10627;54.514;18.532;2022-12-22T08:25:14;27.13;;;13.87;;
20935;SDS011;10627;54.514;18.532;2022-12-22T08:30:15;31.00;;;14.27;;
20935;SDS011;10627;54.514;18.532;2022-12-22T08:35:15;27.47;;;13.20;;
20935;SDS011;10627;54.514;18.532;2022-12-22T08:40:18;32.27;;;13.37;;
20935;SDS011;10627;54.514;18.532;2022-12-22T08:45:19;26.60;;;12.97;;
20935;SDS011;10627;54.514;18.532;2022-12-22T08:50:20;26.80;;;13.30;;
20935;SDS011;10627;54.514;18.532;2022-12-22T08:55:21;25.97;;;13.13;;
20935;SDS011;10627;54.514;18.532;2022-12-22T09:00:21;27.53;;;14.30;;
20935;SDS011;10627;54.514;18.532;2022-12-22T09:05:22;28.57;;;13.23;;
20935;SDS011;10627;54.514;18.532;2022-12-22T09:10:23;26.67;;;12.87;;
20935;SDS011;10627;54.514;18.532;2022-12-22T09:15:23;24.77;;;12.17;;
20935;SDS011;10627;54.514;18.532;2022-12-22T09:20:24;25.20;;;12.03;;
20935;SDS011;10627;54.514;18.532;2022-12-22T09:25:24;30.43;;;13.00;;
20935;SDS011;10627;54.514;18.532;2022-12-22T09:30:25;25.23;;;12.93;;
20935;SDS011;10627;54.514;18.532;2022-12-22T09:35:25;23.10;;;11.83;;
20935;SDS011;10627;54.514;18.532;2022-12-22T09:40:26;30.10;;;12.97;;
20935;SDS011;10627;54.514;18.532;2022-12-22T09:45:27;26.43;;;11.67;;
20935;SDS011;10627;54.514;18.532;2022-12-22T09:50:28;26.77;;;13.03;;
20935;SDS011;10627;54.514;18.532;2022-12-22T09:55:40;28.40;;;13.53;;
20935;SDS011;10627;54.514;18.532;2022-12-22T10:00:41;24.60;;;12.93;;
20935;SDS011;10627;54.514;18.532;2022-12-22T10:05:53;22.67;;;11.67;;
20935;SDS011;10627;54.514;18.532;2022-12-22T10:10:55;26.47;;;13.10;;
20935;SDS011;10627;54.514;18.532;2022-12-22T10:15:56;27.80;;;12.67;;
20935;SDS011;10627;54.514;18.532;2022-12-22T10:21:06;28.47;;;12.33;;
20935;SDS011;10627;54.514;18.532;2022-12-22T10:26:08;23.60;;;12.07;;
20935;SDS011;10627;54.514;18.532;2022-12-22T10:31:20;29.60;;;12.27;;
20935;SDS011;10627;54.514;18.532;2022-12-22T10:36:29;24.90;;;12.37;;
20935;SDS011;10627;54.514;18.532;2022-12-22T10:41:31;25.70;;;12.00;;
20935;SDS011;10627;54.514;18.532;2022-12-22T10:46:36;29.97;;;11.77;;
20935;SDS011;10627;54.514;18.532;2022-12-22T10:51:38;22.57;;;10.87;;
20935;SDS011;10627;54.514;18.532;2022-12-22T10:56:38;24.77;;;11.63;;
20935;SDS011;10627;54.514;18.532;2022-12-22T11:01:39;20.83;;;11.27;;
20935;SDS011;10627;54.514;18.532;2022-12-22T11:06:40;23.10;;;10.97;;
20935;SDS011;10627;54.514;18.532;2022-12-22T11:11:45;27.90;;;11.60;;
20935;SDS011;10627;54.514;18.532;2022-12-22T11:16:50;21.20;;;11.20;;
20935;SDS011;10627;54.514;18.532;2022-12-22T11:47:22;19.27;;;10.10;;
20935;SDS011;10627;54.514;18.532;2022-12-22T11:57:54;21.80;;;10.47;;
20935;SDS011;10627;54.514;18.532;2022-12-22T12:18:43;20.77;;;11.00;;
20935;SDS011;10627;54.514;18.532;2022-12-22T12:34:07;23.63;;;12.73;;
20935;SDS011;10627;54.514;18.532;2022-12-22T12:39:22;25.00;;;12.77;;
20935;SDS011;10627;54.514;18.532;2022-12-22T12:44:25;22.07;;;11.47;;
20935;SDS011;10627;54.514;18.532;2022-12-22T12:54:37;24.97;;;12.03;;
20935;SDS011;10627;54.514;18.532;2022-12-22T13:10:05;27.53;;;12.03;;
20935;SDS011;10627;54.514;18.532;2022-12-22T13:20:45;39.77;;;18.57;;
20935;SDS011;10627;54.514;18.532;2022-12-22T13:25:55;28.47;;;14.60;;
20935;SDS011;10627;54.514;18.532;2022-12-22T13:30:58;33.93;;;15.80;;
20935;SDS011;10627;54.514;18.532;2022-12-22T13:35:59;29.53;;;14.60;;
20935;SDS011;10627;54.514;18.532;2022-12-22T13:41:16;32.93;;;14.93;;
20935;SDS011;10627;54.514;18.532;2022-12-22T13:46:18;36.17;;;15.33;;
20935;SDS011;10627;54.514;18.532;2022-12-22T13:51:22;39.20;;;16.90;;
20935;SDS011;10627;54.514;18.532;2022-12-22T13:56:24;38.07;;;17.17;;
20935;SDS011;10627;54.514;18.532;2022-12-22T14:01:26;43.67;;;18.43;;
20935;SDS011;10627;54.514;18.532;2022-12-22T14:11:29;44.60;;;17.63;;
20935;SDS011;10627;54.514;18.532;2022-12-22T14:16:30;48.07;;;20.40;;
20935;SDS011;10627;54.514;18.532;2022-12-22T14:21:31;49.60;;;21.53;;
20935;SDS011;10627;54.514;18.532;2022-12-22T14:26:33;40.50;;;17.63;;
20935;SDS011;10627;54.514;18.532;2022-12-22T14:31:48;35.97;;;17.30;;
20935;SDS011;10627;54.514;18.532;2022-12-22T14:36:49;33.50;;;14.53;;
20935;SDS011;10627;54.514;18.532;2022-12-22T14:41:54;32.53;;;16.03;;
20935;SDS011;10627;54.514;18.532;2022-12-22T14:57:36;27.97;;;13.53;;
20935;SDS011;10627;54.514;18.532;2022-12-22T15:02:39;29.87;;;15.33;;
20935;SDS011;10627;54.514;18.532;2022-12-22T15:07:47;31.17;;;14.63;;
20935;SDS011;10627;54.514;18.532;2022-12-22T15:12:48;28.20;;;13.73;;
20935;SDS011;10627;54.514;18.532;2022-12-22T15:17:50;29.33;;;14.10;;
20935;SDS011;10627;54.514;18.532;2022-12-22T15:22:51;30.10;;;14.53;;
20935;SDS011;10627;54.514;18.532;2022-12-22T15:27:52;28.70;;;13.90;;
20935;SDS011;10627;54.514;18.532;2022-12-22T15:32:53;26.93;;;14.67;;
20935;SDS011;10627;54.514;18.532;2022-12-22T15:37:54;24.07;;;11.97;;
20935;SDS011;10627;54.514;18.532;2022-12-22T15:42:55;21.37;;;12.20;;
20935;SDS011;10627;54.514;18.532;2022-12-22T15:47:55;20.03;;;11.73;;
20935;SDS011;10627;54.514;18.532;2022-12-22T15:52:57;21.93;;;11.77;;
20935;SDS011;10627;54.514;18.532;2022-12-22T15:57:58;27.30;;;13.00;;
20935;SDS011;10627;54.514;18.532;2022-12-22T16:02:59;24.87;;;12.60;;
20935;SDS011;10627;54.514;18.532;2022-12-22T16:07:59;28.83;;;13.93;;
20935;SDS011;10627;54.514;18.532;2022-12-22T16:13:00;26.03;;;13.67;;
20935;SDS011;10627;54.514;18.532;2022-12-22T16:18:03;33.63;;;13.83;;
20935;SDS011;10627;54.514;18.532;2022-12-22T16:23:03;29.33;;;14.50;;
20935;SDS011;10627;54.514;18.532;2022-12-22T16:28:05;27.03;;;15.17;;
20935;SDS011;10627;54.514;18.532;2022-12-22T16:33:07;33.17;;;15.43;;
20935;SDS011;10627;54.514;18.532;2022-12-22T16:38:10;31.63;;;16.60;;
20935;SDS011;10627;54.514;18.532;2022-12-22T16:43:12;31.03;;;14.70;;
20935;SDS011;10627;54.514;18.532;2022-12-22T16:48:20;29.63;;;15.63;;
20935;SDS011;10627;54.514;18.532;2022-12-22T16:53:22;29.43;;;14.87;;
20935;SDS011;10627;54.514;18.532;2022-12-22T16:58:23;26.57;;;14.60;;
20935;SDS011;10627;54.514;18.532;2022-12-22T17:03:23;24.90;;;14.97;;
20935;SDS011;10627;54.514;18.532;2022-12-22T17:08:29;29.57;;;14.50;;
20935;SDS011;10627;54.514;18.532;2022-12-22T17:13:31;30.63;;;14.57;;
20935;SDS011;10627;54.514;18.532;2022-12-22T17:18:32;23.37;;;14.13;;
20935;SDS011;10627;54.514;18.532;2022-12-22T17:23:34;25.97;;;13.57;;
20935;SDS011;10627;54.514;18.532;2022-12-22T17:28:35;26.83;;;14.57;;
20935;SDS011;10627;54.514;18.532;2022-12-22T17:33:36;20.60;;;11.37;;
20935;SDS011;10627;54.514;18.532;2022-12-22T17:38:37;25.97;;;13.97;;
20935;SDS011;10627;54.514;18.532;2022-12-22T17:43:37;24.40;;;14.13;;
20935;SDS011;10627;54.514;18.532;2022-12-22T17:48:38;26.67;;;14.60;;
20935;SDS011;10627;54.514;18.532;2022-12-22T17:53:39;31.87;;;15.03;;
20935;SDS011;10627;54.514;18.532;2022-12-22T17:58:39;29.50;;;15.00;;
20935;SDS011;10627;54.514;18.532;2022-12-22T18:03:42;27.90;;;13.43;;
20935;SDS011;10627;54.514;18.532;2022-12-22T18:08:43;28.60;;;14.90;;
20935;SDS011;10627;54.514;18.532;2022-12-22T18:13:43;27.27;;;13.13;;
20935;SDS011;10627;54.514;18.532;2022-12-22T18:18:44;18.97;;;9.80;;
20935;SDS011;10627;54.514;18.532;2022-12-22T18:23:45;24.37;;;10.47;;
20935;SDS011;10627;54.514;18.532;2022-12-22T18:28:46;33.73;;;15.80;;
20935;SDS011;10627;54.514;18.532;2022-12-22T18:33:46;29.07;;;14.93;;
20935;SDS011;10627;54.514;18.532;2022-12-22T18:38:47;28.93;;;14.60;;
20935;SDS011;10627;54.514;18.532;2022-12-22T18:43:48;30.13;;;15.70;;
20935;SDS011;10627;54.514;18.532;2022-12-22T18:48:49;34.70;;;14.90;;
20935;SDS011;10627;54.514;18.532;2022-12-22T18:53:50;27.10;;;13.97;;
20935;SDS011;10627;54.514;18.532;2022-12-22T18:58:51;38.33;;;17.07;;
20935;SDS011;10627;54.514;18.532;2022-12-22T19:03:53;35.40;;;16.73;;
20935;SDS011;10627;54.514;18.532;2022-12-22T19:08:54;29.97;;;15.53;;
20935;SDS011;10627;54.514;18.532;2022-12-22T19:13:55;36.33;;;15.67;;
20935;SDS011;10627;54.514;18.532;2022-12-22T19:18:55;32.20;;;14.93;;
20935;SDS011;10627;54.514;18.532;2022-12-22T19:23:57;27.97;;;13.80;;
20935;SDS011;10627;54.514;18.532;2022-12-22T19:28:58;32.17;;;14.30;;
20935;SDS011;10627;54.514;18.532;2022-12-22T19:34:03;26.23;;;13.57;;
20935;SDS011;10627;54.514;18.532;2022-12-22T19:39:04;26.87;;;13.63;;
20935;SDS011;10627;54.514;18.532;2022-12-22T19:44:08;30.13;;;13.33;;
20935;SDS011;10627;54.514;18.532;2022-12-22T19:49:13;27.73;;;13.43;;
20935;SDS011;10627;54.514;18.532;2022-12-22T19:54:14;27.17;;;13.93;;
20935;SDS011;10627;54.514;18.532;2022-12-22T20:04:24;24.23;;;13.10;;
20935;SDS011;10627;54.514;18.532;2022-12-22T20:09:25;22.07;;;11.73;;
20935;SDS011;10627;54.514;18.532;2022-12-22T20:14:25;19.90;;;9.80;;
20935;SDS011;10627;54.514;18.532;2022-12-22T20:19:26;23.20;;;11.70;;
20935;SDS011;10627;54.514;18.532;2022-12-22T20:24:26;22.17;;;11.33;;
20935;SDS011;10627;54.514;18.532;2022-12-22T20:29:30;24.67;;;11.63;;
20935;SDS011;10627;54.514;18.532;2022-12-22T20:34:31;20.07;;;10.57;;
20935;SDS011;10627;54.514;18.532;2022-12-22T20:39:31;21.33;;;11.30;;
20935;SDS011;10627;54.514;18.532;2022-12-22T20:44:32;17.20;;;9.97;;
20935;SDS011;10627;54.514;18.532;2022-12-22T20:49:32;15.33;;;8.93;;
20935;SDS011;10627;54.514;18.532;2022-12-22T20:54:33;12.10;;;7.20;;
20935;SDS011;10627;54.514;18.532;2022-12-22T20:59:33;13.40;;;7.07;;
20935;SDS011;10627;54.514;18.532;2022-12-22T21:04:34;13.47;;;6.70;;
20935;SDS011;10627;54.514;18.532;2022-12-22T21:09:34;12.37;;;7.27;;
20935;SDS011;10627;54.514;18.532;2022-12-22T21:14:35;13.37;;;7.00;;
20935;SDS011;10627;54.514;18.532;2022-12-22T21:19:36;11.60;;;6.93;;
20935;SDS011;10627;54.514;18.532;2022-12-22T21:24:36;11.80;;;6.07;;
20935;SDS011;10627;54.514;18.532;2022-12-22T21:29:37;11.20;;;6.37;;
20935;SDS011;10627;54.514;18.532;2022-12-22T21:34:38;11.17;;;6.30;;
20935;SDS011;10627;54.514;18.532;2022-12-22T21:39:38;12.20;;;7.23;;
20935;SDS011;10627;54.514;18.532;2022-12-22T21:44:43;11.40;;;6.77;;
20935;SDS011;10627;54.514;18.532;2022-12-22T21:49:44;9.00;;;5.40;;
20935;SDS011;10627;54.514;18.532;2022-12-22T21:54:45;9.20;;;5.17;;
20935;SDS011;10627;54.514;18.532;2022-12-22T21:59:45;10.87;;;5.60;;
20935;SDS011;10627;54.514;18.532;2022-12-22T22:04:46;8.47;;;5.07;;
20935;SDS011;10627;54.514;18.532;2022-12-22T22:09:46;8.37;;;5.20;;
20935;SDS011;10627;54.514;18.532;2022-12-22T22:14:47;8.43;;;4.80;;
20935;SDS011;10627;54.514;18.532;2022-12-22T22:19:47;5.83;;;3.73;;
20935;SDS011;10627;54.514;18.532;2022-12-22T22:24:48;5.63;;;3.97;;
20935;SDS011;10627;54.514;18.532;2022-12-22T22:29:48;7.10;;;3.90;;
20935;SDS011;10627;54.514;18.532;2022-12-22T22:34:50;6.10;;;4.43;;
20935;SDS011;10627;54.514;18.532;2022-12-22T22:39:50;4.13;;;3.10;;
20935;SDS011;10627;54.514;18.532;2022-12-22T22:44:51;3.70;;;2.90;;
20935;SDS011;10627;54.514;18.532;2022-12-22T22:49:51;2.83;;;2.20;;
20935;SDS011;10627;54.514;18.532;2022-12-22T22:54:52;4.63;;;2.97;;
20935;SDS011;10627;54.514;18.532;2022-12-22T22:59:52;4.77;;;3.07;;
20935;SDS011;10627;54.514;18.532;2022-12-22T23:04:53;7.00;;;3.50;;
20935;SDS011;10627;54.514;18.532;2022-12-22T23:09:53;11.90;;;3.53;;
20935;SDS011;10627;54.514;18.532;2022-12-22T23:14:54;5.40;;;3.00;;
20935;SDS011;10627;54.514;18.532;2022-12-22T23:19:54;7.23;;;3.53;;
20935;SDS011;10627;54.514;18.532;2022-12-22T23:24:55;4.87;;;3.20;;
20935;SDS011;10627;54.514;18.532;2022-12-22T23:29:55;4.77;;;3.40;;
20935;SDS011;10627;54.514;18.532;2022-12-22T23:34:56;4.77;;;2.83;;
20935;SDS011;10627;54.514;18.532;2022-12-22T23:39:57;6.00;;;2.97;;
20935;SDS011;10627;54.514;18.532;2022-12-22T23:44:58;6.00;;;3.50;;
20935;SDS011;10627;54.514;18.532;2022-12-22T23:49:59;7.17;;;2.97;;
20935;SDS011;10627;54.514;18.532;2022-12-22T23:55:00;9.83;;;3.23;;
